createdAt,value
2018-08-24T02:36:58.055Z,99.99
2018-08-24T02:42:53.081Z,99.99
2018-08-24T02:43:52.853Z,99.99
2018-08-24T02:44:52.878Z,99.99
2018-08-24T02:45:52.801Z,99.99
2018-08-24T02:46:52.787Z,99.99
2018-08-24T02:47:52.750Z,99.99
2018-08-24T02:48:52.734Z,99.99
2018-08-24T02:49:52.702Z,99.99
2018-08-24T02:50:52.679Z,99.99
2018-08-24T02:51:52.653Z,99.99
2018-08-24T02:52:52.640Z,99.99
2018-08-24T02:53:52.602Z,99.99
2018-08-24T02:54:52.578Z,99.99
2018-08-24T02:55:52.554Z,99.99
2018-08-24T02:56:52.536Z,99.99
2018-08-24T02:57:52.503Z,99.99
2018-08-24T02:58:52.479Z,99.99
2018-08-24T02:59:52.453Z,99.99
2018-08-24T03:00:52.429Z,99.99
2018-08-24T03:01:52.413Z,99.99
2018-08-24T03:25:33.668Z,99.99
2018-08-24T03:26:31.021Z,99.99
2018-08-24T03:27:30.990Z,99.99
2018-08-24T03:28:30.967Z,99.99
2018-08-24T03:29:30.939Z,99.99
2018-08-24T03:30:30.912Z,99.99
2018-08-24T03:31:30.898Z,99.99
2018-08-24T03:32:30.865Z,99.99
2018-08-24T03:33:30.641Z,99.99
2018-08-24T03:34:30.819Z,99.99
2018-08-24T03:35:30.590Z,99.99
2018-08-24T03:36:30.763Z,99.99
2018-08-24T03:37:30.740Z,99.99
2018-08-24T03:38:34.345Z,99.99
2018-08-24T03:39:30.485Z,99.99
2018-08-24T03:40:30.471Z,99.99
2018-08-24T03:41:30.436Z,99.99
2018-08-24T03:42:30.411Z,99.99
2018-08-24T03:43:30.388Z,99.99
2018-08-24T03:44:30.565Z,99.99
2018-08-24T03:45:30.338Z,99.99
2018-08-24T03:46:30.312Z,99.99
2018-08-24T03:47:30.290Z,99.99
2018-08-24T03:48:30.467Z,99.99
2018-08-24T03:49:30.440Z,99.99
2018-08-24T03:50:30.414Z,99.99
2018-08-24T03:51:30.389Z,99.99
2018-08-24T03:52:30.166Z,99.99
2018-08-24T03:53:30.140Z,99.99
2018-08-24T03:54:30.114Z,99.99
2018-08-24T03:55:30.094Z,99.99
2018-08-24T03:56:30.066Z,99.99
2018-08-24T03:57:30.040Z,99.99
2018-08-24T03:58:30.020Z,99.99
2018-08-24T03:59:29.990Z,99.99
2018-08-24T04:00:29.964Z,99.99
2018-08-24T04:01:29.945Z,99.99
2018-08-24T04:02:29.913Z,99.99
2018-08-24T04:03:30.096Z,99.99
2018-08-24T04:04:29.866Z,99.99
2018-08-24T04:05:29.842Z,99.99
2018-08-24T04:06:29.816Z,99.99
2018-08-24T04:07:29.790Z,99.99
2018-08-24T04:08:29.765Z,99.99
2018-08-24T04:09:29.950Z,99.99
2018-08-24T04:10:29.916Z,99.99
2018-08-24T04:11:29.899Z,99.99
2018-08-24T04:12:29.870Z,99.99
2018-08-24T04:13:29.641Z,99.99
2018-08-24T04:14:29.616Z,99.99
2018-08-24T04:15:29.591Z,99.99
2018-08-24T04:16:29.581Z,99.99
2018-08-24T04:17:29.547Z,99.99
2018-08-24T04:18:29.519Z,99.99
2018-08-24T04:19:29.552Z,99.99
2018-08-24T04:20:29.466Z,99.99
2018-08-24T04:21:29.646Z,99.99
2018-08-24T04:22:29.417Z,99.99
2018-08-24T04:23:29.394Z,99.99
2018-08-24T04:24:29.371Z,99.99
2018-08-24T04:25:29.356Z,99.99
2018-08-24T04:26:29.319Z,99.99
2018-08-24T04:27:29.297Z,99.99
2018-08-24T04:28:29.269Z,99.99
2018-08-24T04:29:29.244Z,99.99
2018-08-24T04:30:29.220Z,99.99
2018-08-24T04:31:29.396Z,99.99
2018-08-24T04:32:29.178Z,99.99
2018-08-24T04:33:29.146Z,99.99
2018-08-24T04:34:29.122Z,99.99
2018-08-24T04:35:29.097Z,99.99
2018-08-24T04:36:29.071Z,99.99
2018-08-24T04:37:29.045Z,99.99
2018-08-24T04:38:29.029Z,99.99
2018-08-24T04:39:28.999Z,99.99
2018-08-24T04:40:29.313Z,99.99
2018-08-24T04:41:28.948Z,99.99
2018-08-24T04:42:31.745Z,99.99
2018-08-24T04:43:28.901Z,99.99
2018-08-24T04:44:28.873Z,99.99
2018-08-24T04:45:28.861Z,99.99
2018-08-24T04:46:28.821Z,99.99
2018-08-24T04:47:28.799Z,99.99
2018-08-24T04:48:28.770Z,99.99
2018-08-24T04:49:28.746Z,99.99
2018-08-24T04:50:28.720Z,99.99
2018-08-24T04:51:28.743Z,99.99
2018-08-24T04:52:28.673Z,99.99
2018-08-24T04:53:28.647Z,99.99
2018-08-24T04:54:28.623Z,99.99
2018-08-24T04:55:28.598Z,99.99
2018-08-24T04:56:28.571Z,99.99
2018-08-24T04:57:28.546Z,99.99
2018-08-24T05:00:52.799Z,99.99
2018-08-24T05:01:52.774Z,99.99
2018-08-24T05:02:52.747Z,99.99
2018-08-24T05:03:52.721Z,99.99
2018-08-24T05:04:52.696Z,99.99
2018-08-24T05:05:52.677Z,99.99
2018-08-24T05:06:52.658Z,99.99
2018-08-24T05:07:52.622Z,99.99
2018-08-24T05:08:52.601Z,99.99
2018-08-24T05:09:52.575Z,99.99
2018-08-24T05:10:52.547Z,99.99
2018-08-24T05:11:52.521Z,99.99
2018-08-24T05:12:52.496Z,99.99
2018-08-24T05:13:52.472Z,99.99
2018-08-24T05:14:52.453Z,99.99
2018-08-24T05:15:52.624Z,99.99
2018-08-24T05:16:52.403Z,99.99
2018-08-24T05:20:52.297Z,99.99
2018-08-24T05:21:52.270Z,99.99
2018-08-24T05:24:52.534Z,99.99
2018-08-24T05:27:52.126Z,99.99
2018-08-24T05:28:52.304Z,99.99
2018-08-24T05:29:52.080Z,99.99
2018-08-24T05:30:52.050Z,99.99
2018-08-24T05:32:52.000Z,99.99
2018-08-24T05:34:51.953Z,99.99
2018-08-24T05:35:51.929Z,99.99
2018-08-24T05:37:52.084Z,99.99
2018-08-24T05:39:52.038Z,99.99
2018-08-24T05:40:53.015Z,99.99
2018-08-24T05:41:51.788Z,99.99
2018-08-24T05:44:51.711Z,99.99
2018-08-24T05:45:51.891Z,99.99
2018-08-24T05:47:51.646Z,99.99
2018-08-24T05:51:51.544Z,99.99
2018-08-24T06:13:49.551Z,99.99
2018-08-24T06:14:49.530Z,99.99
2018-08-24T06:15:49.562Z,99.99
2018-08-24T06:19:49.612Z,99.99
2018-08-24T10:14:21.451Z,99.99
2018-08-24T10:15:21.230Z,99.99
2018-08-24T10:16:21.200Z,99.99
2018-08-24T10:25:05.038Z,99.99
2018-08-24T10:26:04.812Z,99.99
2018-08-24T10:31:17.908Z,99.99
2018-08-24T10:32:17.887Z,99.99
2018-08-24T10:33:17.857Z,99.99
2018-08-24T11:31:12.244Z,92.32
2018-08-24T11:33:36.533Z,91.11
2018-08-24T11:34:36.515Z,91.36
2018-08-24T11:35:36.496Z,92.27
2018-08-24T11:36:36.279Z,94.73
2018-08-24T11:37:36.257Z,95.07
2018-08-24T11:38:36.240Z,95.36
2018-08-24T12:04:54.070Z,88.53
2018-08-24T12:05:54.057Z,88.53
2018-08-24T12:06:54.031Z,89.68
2018-08-24T12:07:54.093Z,89.43
2018-08-24T12:08:53.788Z,87.98
2018-08-24T12:09:53.975Z,87.40
2018-08-24T12:10:53.751Z,87.70
2018-08-24T12:11:53.938Z,87.16
2018-08-24T12:12:53.724Z,82.34
2018-08-24T12:13:53.713Z,80.12
2018-08-24T12:14:53.676Z,79.02
2018-08-24T12:15:53.861Z,78.86
2018-08-24T12:16:53.639Z,78.29
2018-08-24T12:17:53.822Z,77.26
2018-08-24T12:18:53.615Z,75.72
2018-08-24T12:19:53.789Z,74.20
2018-08-24T12:20:53.570Z,74.20
2018-08-24T12:21:53.551Z,74.84
2018-08-24T12:22:53.534Z,75.36
2018-08-24T12:23:53.519Z,75.01
2018-08-24T12:24:53.509Z,74.05
2018-08-24T12:25:53.687Z,72.89
2018-08-24T12:26:53.468Z,72.66
2018-08-24T12:27:53.672Z,73.33
2018-08-24T12:28:53.436Z,73.11
2018-08-24T12:29:53.416Z,71.15
2018-08-24T12:30:53.427Z,71.79
2018-08-24T12:31:53.390Z,71.60
2018-08-24T12:32:53.571Z,71.64
2018-08-24T12:33:53.353Z,71.31
2018-08-24T12:34:53.381Z,70.73
2018-08-24T12:51:23.602Z,60.83
2018-08-24T12:52:20.761Z,60.89
2018-08-24T12:53:23.377Z,61.77
2018-08-24T12:54:20.928Z,61.25
2018-08-24T12:55:20.917Z,61.64
2018-08-24T12:56:20.699Z,61.83
2018-08-24T12:57:20.676Z,62.41
2018-08-24T12:58:20.864Z,63.09
2018-08-24T12:59:20.854Z,63.76
2018-08-24T13:00:20.832Z,64.15
2018-08-24T13:01:20.817Z,65.59
2018-08-24T13:02:20.597Z,64.92
2018-08-24T13:03:20.582Z,62.92
2018-08-24T13:04:20.563Z,63.24
2018-08-24T13:05:20.550Z,64.98
2018-08-24T13:06:20.535Z,64.89
2018-08-24T13:07:20.517Z,64.11
2018-08-24T13:08:20.508Z,64.47
2018-08-24T13:09:20.491Z,64.59
2018-08-24T13:10:20.473Z,64.98
2018-08-24T13:11:20.456Z,64.02
2018-08-24T13:12:20.440Z,64.02
2018-08-24T13:13:20.426Z,64.21
2018-08-24T13:14:20.406Z,65.20
2018-08-24T13:15:20.476Z,65.78
2018-08-24T13:16:20.578Z,68.07
2018-08-24T13:18:03.794Z,70.28
2018-08-24T13:19:03.575Z,70.76
2018-08-24T13:20:03.559Z,70.73
2018-08-24T13:21:03.540Z,71.31
2018-08-24T13:22:03.726Z,74.55
2018-08-24T13:23:03.706Z,76.50
2018-08-24T13:24:03.690Z,77.40
2018-08-24T13:25:45.830Z,78.17
2018-08-24T13:26:45.611Z,78.71
2018-08-24T13:27:45.596Z,79.48
2018-08-24T13:28:45.774Z,80.73
2018-08-24T13:29:45.757Z,81.88
2018-08-24T13:30:45.740Z,82.65
2018-08-24T13:31:45.515Z,83.39
2018-08-24T13:32:45.704Z,84.69
2018-08-24T13:33:45.681Z,85.27
2018-08-24T13:34:45.663Z,85.65
2018-08-24T13:35:45.648Z,86.22
2018-08-24T13:36:45.619Z,85.46
2018-08-24T13:37:45.599Z,84.69
2018-08-24T13:38:45.580Z,84.40
2018-08-24T13:39:45.558Z,83.25
2018-08-24T13:40:45.538Z,82.86
2018-08-24T13:50:11.361Z,76.46
2018-08-24T14:12:15.927Z,79.67
2018-08-24T14:13:15.935Z,79.38
2018-08-24T14:14:15.884Z,80.63
2018-08-24T14:15:15.862Z,82.23
2018-08-24T14:16:57.998Z,83.15
2018-08-24T14:17:57.978Z,83.06
2018-08-24T14:18:57.757Z,84.40
2018-08-24T14:19:57.734Z,84.88
2018-08-24T14:20:57.829Z,84.88
2018-08-24T14:21:57.690Z,85.55
2018-08-24T14:22:57.675Z,85.69
2018-08-24T14:23:57.854Z,85.46
2018-08-24T14:24:57.634Z,86.32
2018-08-24T14:25:57.614Z,87.29
2018-08-24T14:26:57.594Z,87.19
2018-08-24T14:27:57.567Z,88.20
2018-08-24T14:28:57.547Z,89.22
2018-08-24T14:29:57.525Z,90.66
2018-08-24T14:30:57.507Z,90.84
2018-08-24T14:31:57.484Z,89.07
2018-08-24T14:32:57.464Z,86.95
2018-08-24T14:33:57.442Z,85.61
2018-08-24T14:44:47.769Z,80.66
2018-08-24T14:51:24.963Z,79.99
2018-08-24T14:52:24.943Z,80.57
2018-08-24T14:54:07.073Z,80.76
2018-08-24T14:55:07.047Z,81.15
2018-08-24T14:56:07.024Z,82.01
2018-08-24T14:57:06.999Z,82.01
2018-08-24T14:58:06.977Z,82.59
2018-08-24T14:59:06.954Z,82.78
2018-08-24T15:00:06.931Z,83.64
2018-08-24T15:01:06.710Z,83.40
2018-08-24T15:02:10.523Z,83.59
2018-08-24T15:03:06.871Z,83.87
2018-08-24T15:04:06.640Z,83.87
2018-08-24T15:05:07.628Z,84.74
2018-08-24T15:06:06.797Z,84.40
2018-08-24T15:07:06.776Z,85.13
2018-08-24T15:08:06.804Z,87.10
2018-08-24T15:09:06.730Z,89.60
2018-08-24T15:10:06.720Z,88.93
2018-08-24T15:11:06.691Z,88.45
2018-08-24T15:12:06.473Z,88.83
2018-08-24T15:13:06.646Z,88.45
2018-08-24T15:14:06.628Z,86.91
2018-08-24T15:15:06.602Z,85.22
2018-08-24T15:16:06.381Z,84.98
2018-08-24T15:17:09.192Z,84.78
2018-08-24T15:18:48.692Z,84.40
2018-08-24T15:19:48.468Z,84.98
2018-08-24T15:20:48.447Z,85.07
2018-08-24T16:07:28.620Z,89.01
2018-08-24T16:13:23.657Z,93.25
2018-08-24T16:15:08.762Z,93.68
2018-08-24T16:16:05.734Z,93.63
2018-08-24T16:17:06.500Z,93.25
2018-08-24T16:18:05.667Z,94.21
2018-08-24T16:19:05.646Z,95.45
2018-08-24T16:20:05.625Z,95.84
2018-08-24T16:21:08.220Z,96.03
2018-08-24T16:22:05.600Z,95.84
2018-08-24T16:23:05.353Z,96.94
2018-08-24T16:24:05.331Z,96.27
2018-08-24T16:25:05.518Z,94.78
2018-08-24T16:26:05.892Z,94.69
2018-08-24T16:27:05.463Z,94.88
2018-08-24T16:28:05.236Z,95.26
2018-08-24T16:29:05.415Z,95.94
2018-08-24T16:30:05.400Z,96.03
2018-08-24T16:31:05.379Z,96.13
2018-08-24T16:32:05.186Z,95.84
2018-08-24T16:33:05.120Z,95.26
2018-08-24T16:34:05.123Z,96.03
2018-08-24T16:35:05.076Z,95.94
2018-08-24T16:36:05.054Z,95.21
2018-08-24T16:37:05.030Z,96.17
2018-08-24T16:38:05.210Z,96.22
2018-08-24T16:39:05.185Z,95.07
2018-08-24T16:40:04.960Z,94.40
2018-08-24T16:41:04.936Z,94.88
2018-08-24T16:42:04.917Z,95.89
2018-08-24T16:43:04.892Z,96.75
2018-08-24T16:44:04.867Z,95.41
2018-08-24T16:45:04.845Z,93.68
2018-08-24T16:46:04.822Z,94.26
2018-08-24T16:47:04.807Z,95.12
2018-08-24T16:48:04.781Z,95.55
2018-08-24T16:49:04.752Z,96.99
2018-08-24T16:50:04.929Z,97.86
2018-08-24T16:51:04.708Z,98.24
2018-08-24T16:52:04.682Z,98.72
2018-08-24T16:53:04.658Z,99.10
2018-08-24T16:54:04.637Z,99.01
2018-08-24T16:55:04.614Z,97.47
2018-08-24T16:56:04.590Z,97.47
2018-08-24T16:57:04.770Z,95.51
2018-08-24T16:58:04.810Z,96.66
2018-08-24T16:59:04.525Z,96.13
2018-08-24T17:00:04.495Z,96.32
2018-08-24T17:01:04.472Z,96.89
2018-08-24T17:02:04.449Z,96.37
2018-08-24T17:03:04.426Z,96.47
2018-08-24T17:04:04.410Z,95.70
2018-08-24T17:05:04.379Z,96.56
2018-08-24T17:06:04.359Z,96.13
2018-08-24T17:07:04.537Z,95.70
2018-08-24T17:08:04.310Z,95.36
2018-08-24T17:09:04.288Z,95.41
2018-08-24T17:10:04.272Z,95.03
2018-08-24T17:11:04.240Z,95.36
2018-08-24T17:12:04.216Z,95.70
2018-08-24T17:13:04.201Z,95.36
2018-08-24T17:14:04.170Z,95.65
2018-08-24T17:15:04.147Z,93.73
2018-08-24T17:16:04.127Z,92.77
2018-08-24T17:17:04.099Z,92.39
2018-08-24T17:18:04.073Z,91.72
2018-08-24T17:19:04.050Z,90.37
2018-08-24T17:20:04.026Z,89.51
2018-08-24T17:21:04.002Z,89.61
2018-08-24T17:22:03.981Z,89.89
2018-08-24T17:23:04.164Z,90.56
2018-08-24T17:24:03.932Z,91.72
2018-08-24T17:25:03.909Z,90.56
2018-08-24T17:26:03.883Z,91.14
2018-08-24T17:27:03.859Z,91.72
2018-08-24T17:28:03.834Z,92.10
2018-08-24T17:29:03.811Z,91.91
2018-08-24T17:30:03.791Z,92.68
2018-08-24T17:31:03.765Z,91.81
2018-08-24T17:32:03.740Z,91.81
2018-08-24T17:33:03.716Z,91.62
2018-08-24T17:34:03.692Z,92.58
2018-08-24T17:35:03.673Z,91.62
2018-08-24T17:36:03.645Z,91.33
2018-08-24T17:37:03.620Z,91.72
2018-08-24T17:38:03.595Z,91.52
2018-08-24T17:39:03.570Z,91.91
2018-08-24T17:41:28.051Z,90.85
2018-08-24T17:42:31.659Z,91.14
2018-08-24T17:43:28.001Z,90.95
2018-08-24T17:44:27.983Z,90.85
2018-08-24T17:45:27.755Z,90.95
2018-08-24T17:46:27.723Z,90.66
2018-08-24T17:47:27.703Z,90.28
2018-08-24T17:48:27.678Z,90.56
2018-08-24T17:49:27.661Z,90.95
2018-08-24T17:50:27.631Z,90.85
2018-08-24T17:51:27.605Z,90.56
2018-08-24T17:52:27.582Z,90.18
2018-08-24T17:53:27.553Z,89.89
2018-08-24T17:54:27.598Z,89.89
2018-08-24T17:56:52.009Z,90.95
2018-08-24T17:58:34.135Z,91.91
2018-08-24T18:01:40.561Z,95.03
2018-08-24T18:02:40.536Z,95.79
2018-08-24T18:03:40.511Z,96.37
2018-08-24T18:04:40.485Z,97.90
2018-08-24T18:05:40.262Z,98.86
2018-08-24T18:06:40.434Z,98.96
2018-08-24T18:07:40.208Z,99.82
2018-08-24T18:08:40.184Z,99.99
2018-08-24T18:09:40.160Z,99.99
2018-08-24T18:10:40.134Z,99.99
2018-08-24T18:11:40.311Z,99.99
2018-08-24T18:12:40.082Z,99.99
2018-08-24T18:13:40.060Z,99.99
2018-08-24T18:14:40.282Z,99.99
2018-08-24T18:15:40.210Z,99.99
2018-08-24T18:16:40.185Z,99.99
2018-08-24T18:17:40.160Z,99.99
2018-08-24T18:18:40.134Z,99.99
2018-08-24T18:19:39.910Z,99.99
2018-08-24T18:20:39.888Z,99.99
2018-08-24T18:21:40.062Z,99.99
2018-08-24T18:22:40.037Z,99.99
2018-08-24T18:23:40.011Z,99.99
2018-08-24T18:24:40.663Z,99.99
2018-08-24T18:25:39.995Z,99.99
2018-08-24T18:26:39.935Z,99.99
2018-08-24T18:27:39.707Z,99.99
2018-08-24T18:28:39.684Z,99.99
2018-08-24T18:29:39.663Z,99.99
2018-08-24T18:30:39.633Z,99.99
2018-08-24T18:31:39.608Z,99.99
2018-08-24T18:32:39.940Z,99.99
2018-08-24T18:33:39.760Z,99.99
2018-08-24T18:34:39.735Z,99.99
2018-08-24T18:35:39.708Z,99.99
2018-08-24T18:36:39.530Z,99.99
2018-08-24T18:37:39.455Z,99.99
2018-08-24T18:38:39.432Z,99.99
2018-08-24T18:39:39.404Z,99.99
2018-08-24T18:40:40.595Z,99.99
2018-08-24T18:41:39.357Z,99.99
2018-08-24T18:42:39.396Z,99.99
2018-08-24T18:43:39.305Z,99.99
2018-08-24T18:45:21.632Z,99.99
2018-08-24T18:46:21.405Z,99.99
2018-08-24T18:47:21.380Z,99.99
2018-08-24T18:48:21.356Z,99.99
2018-08-24T18:49:21.330Z,99.99
2018-08-24T18:50:21.302Z,99.99
2018-08-24T18:51:21.278Z,99.99
2018-08-24T18:52:21.254Z,99.99
2018-08-24T18:53:21.229Z,99.99
2018-08-24T18:54:21.405Z,99.99
2018-08-24T18:55:21.380Z,99.99
2018-08-24T18:56:21.198Z,99.99
2018-08-24T18:57:21.126Z,99.99
2018-08-24T18:58:21.109Z,99.99
2018-08-24T18:59:21.075Z,99.99
2018-08-24T19:00:21.050Z,99.99
2018-08-24T19:01:21.024Z,99.99
2018-08-24T19:02:21.000Z,99.99
2018-08-24T19:03:20.973Z,99.99
2018-08-24T19:04:21.153Z,99.99
2018-08-24T19:05:20.938Z,99.99
2018-08-24T19:06:20.899Z,99.99
2018-08-24T19:07:20.925Z,99.99
2018-08-24T19:08:20.846Z,99.99
2018-08-24T19:09:20.822Z,99.99
2018-08-24T19:10:20.795Z,99.99
2018-08-24T19:11:20.773Z,99.72
2018-08-24T19:12:20.950Z,99.99
2018-08-24T19:13:20.722Z,99.63
2018-08-24T19:14:20.697Z,98.10
2018-08-24T19:15:20.671Z,98.96
2018-08-24T19:16:20.652Z,98.57
2018-08-24T19:17:20.633Z,99.15
2018-08-24T19:18:20.598Z,99.05
2018-08-24T19:19:20.568Z,99.53
2018-08-24T19:20:20.542Z,99.72
2018-08-24T19:21:20.524Z,99.99
2018-08-24T19:22:20.491Z,99.91
2018-08-24T19:23:20.469Z,99.91
2018-08-24T19:24:20.481Z,99.43
2018-08-24T19:25:20.418Z,98.86
2018-08-24T19:26:20.395Z,99.43
2018-08-24T19:27:20.569Z,98.57
2018-08-24T19:28:20.340Z,99.24
2018-08-24T19:29:20.320Z,99.99
2018-08-24T19:30:20.289Z,99.99
2018-08-24T19:31:20.264Z,99.99
2018-08-24T19:32:20.238Z,99.99
2018-08-24T19:33:20.213Z,99.99
2018-08-24T19:34:20.196Z,99.99
2018-08-24T19:35:20.162Z,99.99
2018-08-24T19:36:20.139Z,99.99
2018-08-24T19:37:20.149Z,99.99
2018-08-24T19:38:20.088Z,99.99
2018-08-24T19:39:20.265Z,99.99
2018-08-24T19:40:20.241Z,99.99
2018-08-24T19:41:20.010Z,99.99
2018-08-24T19:42:20.185Z,99.99
2018-08-24T19:43:20.160Z,99.99
2018-08-24T19:44:20.136Z,99.99
2018-08-24T19:45:20.111Z,99.99
2018-08-24T19:46:20.084Z,99.99
2018-08-24T19:47:20.058Z,99.99
2018-08-24T19:48:20.090Z,99.99
2018-08-24T19:49:20.048Z,99.99
2018-08-24T19:50:19.777Z,99.99
2018-08-24T19:51:19.750Z,99.99
2018-08-24T19:52:19.740Z,99.99
2018-08-24T19:53:19.700Z,99.99
2018-08-24T19:54:19.672Z,99.99
2018-08-24T19:55:19.646Z,99.99
2018-08-24T19:56:19.617Z,99.99
2018-08-24T19:57:19.592Z,99.99
2018-08-24T19:58:19.564Z,99.99
2018-08-24T19:59:19.539Z,99.99
2018-08-24T20:00:19.514Z,99.99
2018-08-24T20:01:19.490Z,99.99
2018-08-24T20:02:19.464Z,99.99
2018-08-24T20:03:19.486Z,99.99
2018-08-24T20:04:19.413Z,99.99
2018-08-24T20:05:19.384Z,99.99
2018-08-24T20:06:19.361Z,99.99
2018-08-24T20:07:19.342Z,99.99
2018-08-24T20:08:19.307Z,99.99
2018-08-24T20:09:19.280Z,99.99
2018-08-24T20:10:19.254Z,99.99
2018-08-24T20:11:19.223Z,99.99
2018-08-24T20:12:19.200Z,99.99
2018-08-24T20:13:19.174Z,99.99
2018-08-24T20:14:19.147Z,99.99
2018-08-24T20:15:19.128Z,99.99
2018-08-24T20:16:19.092Z,99.99
2018-08-24T20:17:19.074Z,99.99
2018-08-24T20:18:19.040Z,99.99
2018-08-24T20:19:19.013Z,99.99
2018-08-24T20:20:18.988Z,99.99
2018-08-24T20:21:18.961Z,99.99
2018-08-24T20:22:18.935Z,99.99
2018-08-24T20:23:18.909Z,99.99
2018-08-24T20:24:19.065Z,99.99
2018-08-24T20:25:18.859Z,99.99
2018-08-24T20:26:18.832Z,99.99
2018-08-24T20:27:19.008Z,99.99
2018-08-24T20:28:18.980Z,99.99
2018-08-24T20:29:18.752Z,99.99
2018-08-24T20:30:18.726Z,99.99
2018-08-24T20:31:18.702Z,99.99
2018-08-24T20:32:18.676Z,99.99
2018-08-24T20:33:18.653Z,99.99
2018-08-24T20:34:18.624Z,99.99
2018-08-24T20:35:18.600Z,99.99
2018-08-24T20:36:18.573Z,99.99
2018-08-24T20:37:18.555Z,99.99
2018-08-24T20:38:18.519Z,99.99
2018-08-24T20:39:18.494Z,99.99
2018-08-24T20:40:18.469Z,99.99
2018-08-24T20:41:18.442Z,99.99
2018-08-24T20:42:18.412Z,99.99
2018-08-24T20:43:19.803Z,99.99
2018-08-24T20:44:18.565Z,99.99
2018-08-24T20:45:21.970Z,99.99
2018-08-24T20:46:18.512Z,99.99
2018-08-24T20:47:18.353Z,99.99
2018-08-24T20:48:18.256Z,99.99
2018-08-24T20:49:18.229Z,99.99
2018-08-24T20:50:18.206Z,99.99
2018-08-24T20:51:18.177Z,99.99
2018-08-24T20:52:18.154Z,99.99
2018-08-24T20:53:18.124Z,99.99
2018-08-24T20:54:18.347Z,99.99
2018-08-24T20:55:18.151Z,99.99
2018-08-24T20:56:18.047Z,99.99
2018-08-24T20:57:18.024Z,99.99
2018-08-24T20:58:17.994Z,99.99
2018-08-24T20:59:17.967Z,99.99
2018-08-24T21:00:17.940Z,99.99
2018-08-24T21:01:17.913Z,99.99
2018-08-24T21:02:17.889Z,99.99
2018-08-24T21:03:17.874Z,99.99
2018-08-24T21:04:17.940Z,99.99
2018-08-24T21:05:17.815Z,99.99
2018-08-24T21:06:17.937Z,99.99
2018-08-24T21:07:17.758Z,99.99
2018-08-24T21:08:17.734Z,99.99
2018-08-24T21:09:17.708Z,99.99
2018-08-24T21:10:17.681Z,99.99
2018-08-24T21:11:17.658Z,99.99
2018-08-24T21:12:17.625Z,99.99
2018-08-24T21:13:17.599Z,99.99
2018-08-24T21:14:17.580Z,99.99
2018-08-24T21:15:17.549Z,99.99
2018-08-24T21:16:17.522Z,99.99
2018-08-24T21:17:17.500Z,99.99
2018-08-24T21:18:17.471Z,99.99
2018-08-24T21:19:17.444Z,99.99
2018-08-24T21:20:17.425Z,99.99
2018-08-24T21:21:17.393Z,99.99
2018-08-24T21:22:17.363Z,99.99
2018-08-24T21:23:17.339Z,99.99
2018-08-24T21:24:17.313Z,99.99
2018-08-24T21:25:17.320Z,99.99
2018-08-24T21:26:17.259Z,99.99
2018-08-24T21:27:17.241Z,99.99
2018-08-24T21:28:17.209Z,99.99
2018-08-24T21:29:17.331Z,99.99
2018-08-24T21:30:17.313Z,99.99
2018-08-24T21:31:17.131Z,99.99
2018-08-24T21:32:17.103Z,99.99
2018-08-24T21:33:17.077Z,99.99
2018-08-24T21:34:17.050Z,99.99
2018-08-24T21:35:17.024Z,99.99
2018-08-24T21:36:17.004Z,99.99
2018-08-24T21:37:16.975Z,99.99
2018-08-24T21:38:16.948Z,99.99
2018-08-24T21:39:16.925Z,99.99
2018-08-24T21:40:16.895Z,99.99
2018-08-24T21:41:16.912Z,99.99
2018-08-24T21:42:16.844Z,99.99
2018-08-24T21:43:16.818Z,99.99
2018-08-24T21:44:16.789Z,99.99
2018-08-24T21:45:16.765Z,99.99
2018-08-24T21:46:16.839Z,99.99
2018-08-24T21:47:16.711Z,99.99
2018-08-24T21:48:16.687Z,99.99
2018-08-24T21:49:16.660Z,99.99
2018-08-24T21:50:16.634Z,99.99
2018-08-24T21:51:16.808Z,99.99
2018-08-24T21:52:16.784Z,99.99
2018-08-24T21:53:16.755Z,99.99
2018-08-24T21:54:16.525Z,99.99
2018-08-24T21:55:16.498Z,99.99
2018-08-24T21:56:16.475Z,99.99
2018-08-24T21:57:16.447Z,99.99
2018-08-24T21:58:16.418Z,99.99
2018-08-24T21:59:16.599Z,99.99
2018-08-24T22:00:16.368Z,99.99
2018-08-24T22:01:16.338Z,99.99
2018-08-24T22:02:16.313Z,99.99
2018-08-24T22:03:16.283Z,99.99
2018-08-24T22:04:16.462Z,99.99
2018-08-24T22:05:16.434Z,99.99
2018-08-24T22:06:16.204Z,99.99
2018-08-24T22:07:16.179Z,99.99
2018-08-24T22:08:16.150Z,99.99
2018-08-24T22:09:16.123Z,99.99
2018-08-24T22:10:16.096Z,99.99
2018-08-24T22:11:16.070Z,99.99
2018-08-24T22:12:16.046Z,99.99
2018-08-24T22:13:16.020Z,99.99
2018-08-24T22:14:15.988Z,99.99
2018-08-24T22:15:15.962Z,99.99
2018-08-24T22:16:15.937Z,99.99
2018-08-24T22:17:15.911Z,99.99
2018-08-24T22:18:15.885Z,99.99
2018-08-24T22:19:15.862Z,99.99
2018-08-24T22:20:15.831Z,99.99
2018-08-24T22:21:15.802Z,99.99
2018-08-24T22:22:15.774Z,99.99
2018-08-24T22:23:15.747Z,99.99
2018-08-24T22:24:15.723Z,99.99
2018-08-24T22:25:15.707Z,99.99
2018-08-24T22:26:15.679Z,99.99
2018-08-24T22:27:15.646Z,99.99
2018-08-24T22:28:15.616Z,99.99
2018-08-24T22:29:15.591Z,99.99
2018-08-24T22:30:15.562Z,99.99
2018-08-24T22:31:15.540Z,99.99
2018-08-24T22:32:15.511Z,99.99
2018-08-24T22:33:15.480Z,99.99
2018-08-24T22:34:15.457Z,99.99
2018-08-24T22:35:15.433Z,99.99
2018-08-24T22:36:15.401Z,99.99
2018-08-24T22:37:15.380Z,99.99
2018-08-24T22:38:15.347Z,99.99
2018-08-24T22:39:15.320Z,99.99
2018-08-24T22:40:15.293Z,99.99
2018-08-24T22:41:15.265Z,99.99
2018-08-24T22:42:15.238Z,99.99
2018-08-24T22:43:15.211Z,99.99
2018-08-24T22:44:15.185Z,99.99
2018-08-24T22:45:15.158Z,99.99
2018-08-24T22:46:15.132Z,99.99
2018-08-24T22:47:15.105Z,99.99
2018-08-24T22:48:15.079Z,99.99
2018-08-24T22:49:15.052Z,99.99
2018-08-24T22:50:15.029Z,99.99
2018-08-24T22:51:14.999Z,99.99
2018-08-24T22:52:14.969Z,99.99
2018-08-24T22:53:14.943Z,99.99
2018-08-24T22:54:14.916Z,99.99
2018-08-24T22:55:14.890Z,99.99
2018-08-24T22:56:14.864Z,99.99
2018-08-24T22:57:14.838Z,99.99
2018-08-24T22:58:14.811Z,99.99
2018-08-24T22:59:14.783Z,99.99
2018-08-24T23:00:14.758Z,99.99
2018-08-24T23:01:14.733Z,99.99
2018-08-24T23:02:14.704Z,99.99
2018-08-24T23:03:14.677Z,99.99
2018-08-24T23:04:14.647Z,99.99
2018-08-24T23:05:14.623Z,99.99
2018-08-24T23:06:14.598Z,99.99
2018-08-24T23:07:14.568Z,99.99
2018-08-24T23:08:14.544Z,99.99
2018-08-24T23:09:14.517Z,99.99
2018-08-24T23:10:14.493Z,99.99
2018-08-24T23:11:14.462Z,99.99
2018-08-24T23:12:14.435Z,99.99
2018-08-24T23:13:14.413Z,99.99
2018-08-24T23:14:14.380Z,99.99
2018-08-24T23:15:14.354Z,99.99
2018-08-24T23:16:14.327Z,99.99
2018-08-24T23:17:14.299Z,99.99
2018-08-24T23:18:14.273Z,99.99
2018-08-24T23:19:14.247Z,99.99
2018-08-24T23:20:14.221Z,99.99
2018-08-24T23:21:14.196Z,99.99
2018-08-24T23:22:14.169Z,99.99
2018-08-24T23:23:14.187Z,99.99
2018-08-24T23:24:14.118Z,99.99
2018-08-24T23:25:14.087Z,99.99
2018-08-24T23:26:14.062Z,99.99
2018-08-24T23:27:14.033Z,99.99
2018-08-24T23:28:14.009Z,99.99
2018-08-24T23:29:13.982Z,99.99
2018-08-24T23:30:13.954Z,99.99
2018-08-24T23:31:13.928Z,99.99
2018-08-24T23:32:13.904Z,99.99
2018-08-24T23:33:13.877Z,99.99
2018-08-24T23:34:13.912Z,99.99
2018-08-24T23:35:13.821Z,99.99
2018-08-24T23:36:13.793Z,99.99
2018-08-24T23:37:13.767Z,99.99
2018-08-24T23:38:13.741Z,99.99
2018-08-24T23:39:13.713Z,99.99
2018-08-24T23:40:13.688Z,99.99
2018-08-24T23:41:13.661Z,99.99
2018-08-24T23:42:13.634Z,99.99
2018-08-24T23:43:13.609Z,99.99
2018-08-24T23:44:13.583Z,99.99
2018-08-24T23:45:13.554Z,99.99
2018-08-24T23:46:13.526Z,99.99
2018-08-24T23:47:13.507Z,99.99
2018-08-24T23:48:13.475Z,99.99
2018-08-24T23:49:13.476Z,99.99
2018-08-24T23:50:13.419Z,99.99
2018-08-24T23:51:13.396Z,99.99
2018-08-24T23:52:13.368Z,99.99
2018-08-24T23:53:13.342Z,99.99
2018-08-24T23:54:13.316Z,99.99
2018-08-24T23:55:13.288Z,99.99
2018-08-24T23:56:13.259Z,99.99
2018-08-24T23:57:13.232Z,99.99
2018-08-24T23:58:13.204Z,99.99
2018-08-24T23:59:13.179Z,99.99
